Time;durP1;ratioP1;P1;durP2;ratioP2;P2;SDS_P1;SDS_P2;PMS_P1;PMS_P2;Temp;Humidity;BMP_temperature;BMP_pressure;BME280_temperature;BME280_humidity;BME280_pressure;Samples;Min_cycle;Max_cycle;Signal;HPM_P1;HPM_P2
2023/07/06 00:00:29;;;;;;;7.78;4.95;;;15.00;92.00;;;;;;5048265;28;20013;-65
2023/07/06 00:02:55;;;;;;;6.65;5.43;;;14.90;92.00;;;;;;5053107;28;20479;-66
2023/07/06 00:05:23;;;;;;;6.53;5.25;;;14.90;92.10;;;;;;5052241;28;20021;-66
2023/07/06 00:07:49;;;;;;;6.38;5.22;;;14.90;92.10;;;;;;5052438;28;20025;-67
2023/07/06 00:10:14;;;;;;;6.63;4.88;;;14.90;92.20;;;;;;5058793;28;20032;-65
2023/07/06 00:12:40;;;;;;;7.28;5.22;;;14.90;92.30;;;;;;5057960;28;20052;-66
2023/07/06 00:15:06;;;;;;;6.95;5.57;;;14.90;92.40;;;;;;5051613;28;20014;-66
2023/07/06 00:17:32;;;;;;;8.48;6.40;;;14.90;92.40;;;;;;5052190;28;20021;-66
2023/07/06 00:19:57;;;;;;;7.78;5.85;;;14.90;92.60;;;;;;5051462;28;20017;-66
2023/07/06 00:22:23;;;;;;;9.23;6.55;;;14.90;92.60;;;;;;5033750;28;20112;-66
2023/07/06 00:24:49;;;;;;;7.95;6.43;;;14.90;92.70;;;;;;5051848;28;20025;-66
2023/07/06 00:27:17;;;;;;;7.68;6.13;;;14.90;92.80;;;;;;5053220;28;20035;-65
2023/07/06 00:29:56;;;;;;;8.73;6.00;;;14.90;92.80;;;;;;5059507;28;20112;-66
2023/07/06 00:32:28;;;;;;;7.07;5.60;;;14.90;92.90;;;;;;5050871;28;20025;-65
2023/07/06 00:34:55;;;;;;;8.35;6.10;;;14.90;92.90;;;;;;5050934;28;20028;-66
2023/07/06 00:37:21;;;;;;;8.05;5.90;;;15.00;93.00;;;;;;5047787;28;20491;-66
2023/07/06 00:39:48;;;;;;;6.88;6.18;;;15.00;93.00;;;;;;5051519;28;20039;-65
2023/07/06 00:42:16;;;;;;;10.63;7.03;;;15.00;93.00;;;;;;5056333;28;20020;-66
2023/07/06 00:44:57;;;;;;;7.88;6.10;;;15.00;93.10;;;;;;5051617;28;20033;-65
2023/07/06 00:47:29;;;;;;;10.68;6.35;;;15.00;93.10;;;;;;5046153;28;20026;-67
2023/07/06 00:49:57;;;;;;;7.72;5.80;;;15.00;93.20;;;;;;5048877;28;20028;-66
2023/07/06 00:52:23;;;;;;;7.50;6.20;;;15.00;93.20;;;;;;5051785;28;20036;-66
2023/07/06 00:54:49;;;;;;;7.35;6.07;;;15.00;93.10;;;;;;5053615;28;20028;-66
2023/07/06 00:57:17;;;;;;;7.68;5.75;;;15.10;93.20;;;;;;5051826;28;20390;-66
2023/07/06 00:59:44;;;;;;;8.27;6.00;;;15.10;93.10;;;;;;5050735;28;20021;-66
2023/07/06 01:02:13;;;;;;;9.60;6.40;;;15.10;93.10;;;;;;5055380;28;20024;-66
2023/07/06 01:04:39;;;;;;;8.20;6.45;;;15.10;93.10;;;;;;5050255;28;20131;-67
2023/07/06 01:07:06;;;;;;;9.48;5.80;;;15.10;93.10;;;;;;5031469;28;20033;-65
2023/07/06 01:09:32;;;;;;;7.00;4.93;;;15.10;93.10;;;;;;5047577;28;20025;-65
2023/07/06 01:12:02;;;;;;;7.95;6.03;;;15.10;93.10;;;;;;5048466;28;20480;-65
2023/07/06 01:14:28;;;;;;;10.32;6.30;;;15.10;93.10;;;;;;5056472;28;20060;-64
2023/07/06 01:17:05;;;;;;;8.45;6.05;;;15.10;93.10;;;;;;5053426;28;20029;-64
2023/07/06 01:20:00;;;;;;;9.70;6.32;;;15.00;93.20;;;;;;5044018;28;20074;-66
2023/07/06 01:22:50;;;;;;;8.77;6.72;;;15.00;93.20;;;;;;5037409;28;20040;-66
2023/07/06 01:25:48;;;;;;;9.00;6.88;;;15.00;93.20;;;;;;5058015;28;20029;-66
2023/07/06 01:28:40;;;;;;;6.93;5.80;;;15.00;93.30;;;;;;5048609;28;20434;-66
2023/07/06 01:31:45;;;;;;;9.82;6.60;;;14.90;93.30;;;;;;5030559;28;20116;-66
2023/07/06 01:34:35;;;;;;;7.93;6.47;;;14.90;93.30;;;;;;5052029;28;20021;-66
2023/07/06 01:37:22;;;;;;;9.90;7.20;;;14.80;93.50;;;;;;5035959;28;20025;-65
2023/07/06 01:39:48;;;;;;;14.55;8.15;;;14.80;93.60;;;;;;5058056;28;20025;-66
2023/07/06 01:42:25;;;;;;;7.63;6.25;;;14.80;93.70;;;;;;5050410;28;20075;-66
2023/07/06 01:44:52;;;;;;;8.20;6.57;;;14.80;93.70;;;;;;5051222;28;20049;-65
2023/07/06 01:47:19;;;;;;;11.93;6.72;;;14.80;93.70;;;;;;5044212;28;20028;-65
2023/07/06 01:49:45;;;;;;;12.05;7.72;;;14.80;93.70;;;;;;5051281;28;20025;-66
2023/07/06 01:52:52;;;;;;;14.45;7.78;;;14.70;93.80;;;;;;5049887;28;20040;-65
2023/07/06 01:55:31;;;;;;;10.93;7.57;;;14.70;93.90;;;;;;5049408;28;20419;-64
2023/07/06 01:58:23;;;;;;;11.77;8.13;;;14.70;94.00;;;;;;5054752;28;20064;-65
2023/07/06 02:00:55;;;;;;;8.75;7.00;;;14.70;94.00;;;;;;5057055;28;20032;-66
2023/07/06 02:03:24;;;;;;;8.07;6.55;;;14.60;94.10;;;;;;5050219;28;20529;-66
2023/07/06 02:05:52;;;;;;;9.15;6.55;;;14.70;94.10;;;;;;5051770;28;20365;-65
2023/07/06 02:08:18;;;;;;;8.43;6.95;;;14.70;94.10;;;;;;5050397;28;20036;-66
2023/07/06 02:10:44;;;;;;;9.27;6.50;;;14.70;94.00;;;;;;5048785;28;20055;-66
2023/07/06 02:13:10;;;;;;;10.82;7.57;;;14.70;94.00;;;;;;5050307;28;20689;-67
2023/07/06 02:15:36;;;;;;;9.82;6.63;;;14.70;94.00;;;;;;5059007;28;20356;-66
2023/07/06 02:18:02;;;;;;;10.32;7.10;;;14.70;94.00;;;;;;5045923;28;20032;-66
2023/07/06 02:20:28;;;;;;;11.55;6.88;;;14.70;94.00;;;;;;5059594;28;20067;-66
2023/07/06 02:22:53;;;;;;;9.95;6.28;;;14.70;94.10;;;;;;5050287;28;20028;-66
2023/07/06 02:25:20;;;;;;;13.02;8.27;;;14.70;94.00;;;;;;5050485;28;20502;-65
2023/07/06 02:27:46;;;;;;;14.13;8.90;;;14.70;94.00;;;;;;5049603;28;20028;-65
2023/07/06 02:30:12;;;;;;;11.27;8.18;;;14.70;94.00;;;;;;5049984;28;20029;-66
2023/07/06 02:32:39;;;;;;;8.82;6.95;;;14.70;94.10;;;;;;5050075;28;20098;-66
2023/07/06 02:35:06;;;;;;;11.30;8.38;;;14.70;94.10;;;;;;5053844;28;20013;-66
2023/07/06 02:37:32;;;;;;;12.23;8.13;;;14.70;94.20;;;;;;5049145;28;20025;-66
2023/07/06 02:39:58;;;;;;;11.13;7.90;;;14.70;94.20;;;;;;5050035;28;20025;-65
2023/07/06 02:42:25;;;;;;;11.00;8.13;;;14.70;94.10;;;;;;5049533;28;20032;-65
2023/07/06 02:44:50;;;;;;;10.07;7.40;;;14.70;94.10;;;;;;5048491;28;20025;-66
2023/07/06 02:47:16;;;;;;;10.52;8.10;;;14.70;94.10;;;;;;5052214;28;20391;-66
2023/07/06 02:49:41;;;;;;;10.95;8.00;;;14.80;94.10;;;;;;5050777;28;20072;-66
2023/07/06 02:52:07;;;;;;;11.38;8.23;;;14.70;94.10;;;;;;5049946;28;20392;-66
2023/07/06 02:54:33;;;;;;;11.48;7.90;;;14.70;94.10;;;;;;5049355;28;20040;-66
2023/07/06 02:57:00;;;;;;;10.00;6.85;;;14.70;94.10;;;;;;5044787;28;20091;-66
2023/07/06 02:59:29;;;;;;;10.52;7.18;;;14.70;94.10;;;;;;5046955;28;20021;-67
2023/07/06 03:01:55;;;;;;;10.82;6.72;;;14.70;94.40;;;;;;5048302;28;20646;-67
2023/07/06 03:04:21;;;;;;;12.05;7.47;;;14.70;94.00;;;;;;5049444;28;20063;-66
2023/07/06 03:06:47;;;;;;;11.07;7.10;;;14.70;94.00;;;;;;5037345;28;20658;-66
2023/07/06 03:09:14;;;;;;;11.30;7.20;;;14.80;94.00;;;;;;5051230;28;20475;-66
2023/07/06 03:11:44;;;;;;;10.60;6.65;;;14.80;94.00;;;;;;5050801;28;20082;-66
2023/07/06 03:14:10;;;;;;;8.77;6.40;;;14.70;93.90;;;;;;5048594;28;20071;-66
2023/07/06 03:16:41;;;;;;;9.20;6.72;;;14.70;93.90;;;;;;5053986;28;20092;-65
2023/07/06 03:19:08;;;;;;;10.07;5.82;;;14.70;93.90;;;;;;5049777;28;20494;-66
2023/07/06 03:21:34;;;;;;;7.93;5.85;;;14.70;93.90;;;;;;5052459;28;20024;-66
2023/07/06 03:24:00;;;;;;;7.85;5.85;;;14.70;93.80;;;;;;5048298;28;20037;-66
2023/07/06 03:26:26;;;;;;;9.63;6.25;;;14.70;93.70;;;;;;5043961;28;20029;-66
2023/07/06 03:28:52;;;;;;;10.38;6.90;;;14.70;93.70;;;;;;5048371;28;20523;-65
2023/07/06 03:31:19;;;;;;;8.73;6.40;;;14.70;93.70;;;;;;5032288;28;20021;-66
2023/07/06 03:33:45;;;;;;;8.75;6.32;;;14.70;93.70;;;;;;5048244;28;20028;-65
2023/07/06 03:36:11;;;;;;;8.52;6.35;;;14.70;93.70;;;;;;5050670;28;20104;-66
2023/07/06 03:38:37;;;;;;;9.85;6.55;;;14.70;93.70;;;;;;5048851;28;20029;-66
2023/07/06 03:41:03;;;;;;;11.23;6.82;;;14.60;93.70;;;;;;5048072;28;20037;-66
2023/07/06 03:43:29;;;;;;;9.50;5.85;;;14.60;93.80;;;;;;5049215;28;20040;-66
2023/07/06 03:45:55;;;;;;;13.40;6.75;;;14.60;93.80;;;;;;5047457;28;20116;-66
2023/07/06 03:48:21;;;;;;;11.60;6.03;;;14.60;93.80;;;;;;5048715;28;20163;-66
2023/07/06 03:50:52;;;;;;;7.53;5.82;;;14.60;93.80;;;;;;5051087;28;20547;-65
2023/07/06 03:53:18;;;;;;;8.63;5.60;;;14.50;93.80;;;;;;5053744;28;20024;-66
2023/07/06 03:55:44;;;;;;;8.32;5.40;;;14.60;93.80;;;;;;5052662;28;20075;-66
2023/07/06 03:58:10;;;;;;;7.97;5.13;;;14.60;93.80;;;;;;5056836;28;20040;-66
2023/07/06 04:00:38;;;;;;;11.82;6.90;;;14.60;93.70;;;;;;5054446;28;20534;-66
2023/07/06 04:03:06;;;;;;;6.60;4.45;;;14.60;93.70;;;;;;5057727;28;20401;-66
2023/07/06 04:05:37;;;;;;;7.85;5.40;;;14.60;93.70;;;;;;5057312;28;20014;-66
2023/07/06 04:08:09;;;;;;;7.28;5.13;;;14.60;93.70;;;;;;5061233;28;20506;-66
2023/07/06 04:10:37;;;;;;;6.90;5.50;;;14.60;93.60;;;;;;5057023;28;20078;-66
2023/07/06 04:13:04;;;;;;;8.43;5.00;;;14.60;93.60;;;;;;5058421;28;20056;-66
2023/07/06 04:15:30;;;;;;;10.65;5.82;;;14.60;93.60;;;;;;5050992;28;20028;-67
2023/07/06 04:17:56;;;;;;;7.10;4.40;;;14.60;93.50;;;;;;5058255;28;20116;-66
2023/07/06 04:20:26;;;;;;;8.15;4.63;;;14.60;93.60;;;;;;5052359;28;20112;-65
2023/07/06 04:22:57;;;;;;;7.15;4.50;;;14.70;93.50;;;;;;5053136;28;20021;-67
2023/07/06 04:25:29;;;;;;;6.17;4.73;;;14.70;93.50;;;;;;5053048;28;20079;-66
2023/07/06 04:27:55;;;;;;;6.53;4.57;;;14.70;93.40;;;;;;5056839;28;20533;-65
2023/07/06 04:30:22;;;;;;;8.73;5.00;;;14.70;93.40;;;;;;5050991;28;20029;-67
2023/07/06 04:32:49;;;;;;;7.90;5.95;;;14.70;93.40;;;;;;5054440;28;20035;-66
2023/07/06 04:35:19;;;;;;;10.55;5.57;;;14.70;93.30;;;;;;5040255;28;20060;-66
2023/07/06 04:37:45;;;;;;;8.10;4.93;;;14.60;93.30;;;;;;5032226;28;20024;-66
2023/07/06 04:40:13;;;;;;;6.53;4.28;;;14.60;93.30;;;;;;5051369;28;20025;-66
2023/07/06 04:42:42;;;;;;;9.80;4.63;;;14.60;93.30;;;;;;5032422;28;20025;-67
2023/07/06 04:45:11;;;;;;;10.43;5.57;;;14.60;93.30;;;;;;5054343;28;20025;-66
2023/07/06 04:47:39;;;;;;;9.13;4.65;;;14.60;93.20;;;;;;5036506;28;20029;-66
2023/07/06 04:50:07;;;;;;;7.50;4.10;;;14.60;93.30;;;;;;5050560;28;20020;-66
2023/07/06 04:52:33;;;;;;;10.90;5.43;;;14.70;93.30;;;;;;5035957;28;20057;-67
2023/07/06 04:54:59;;;;;;;10.48;4.57;;;14.70;93.20;;;;;;5049549;28;20025;-66
2023/07/06 04:57:25;;;;;;;7.32;4.68;;;14.70;93.20;;;;;;5057075;28;20031;-66
2023/07/06 04:59:51;;;;;;;8.48;4.32;;;14.70;93.20;;;;;;5051999;28;20017;-67
2023/07/06 05:02:17;;;;;;;9.73;6.10;;;14.70;93.20;;;;;;5049267;28;20044;-67
2023/07/06 05:04:42;;;;;;;9.95;5.50;;;14.70;93.10;;;;;;5039241;28;20029;-66
2023/07/06 05:07:11;;;;;;;8.73;5.15;;;14.70;93.10;;;;;;5051182;28;20099;-66
2023/07/06 05:09:40;;;;;;;10.63;5.50;;;14.70;93.10;;;;;;5051495;28;20027;-66
2023/07/06 05:12:07;;;;;;;9.00;5.18;;;14.70;93.20;;;;;;5051097;28;20036;-66
2023/07/06 05:14:34;;;;;;;8.38;4.45;;;14.70;93.20;;;;;;5063014;28;20024;-66
2023/07/06 05:17:00;;;;;;;9.23;4.30;;;14.70;93.20;;;;;;5047418;28;20492;-65
2023/07/06 05:19:27;;;;;;;8.95;4.90;;;14.70;93.20;;;;;;5047993;28;20028;-66
2023/07/06 05:21:56;;;;;;;9.50;5.50;;;14.80;93.20;;;;;;5048045;28;20032;-66
2023/07/06 05:24:24;;;;;;;9.25;4.60;;;14.80;93.10;;;;;;5046712;28;20029;-65
2023/07/06 05:26:50;;;;;;;12.73;5.53;;;14.80;93.10;;;;;;5046070;28;20033;-65
2023/07/06 05:29:16;;;;;;;6.53;4.05;;;14.80;93.10;;;;;;5047254;28;20514;-65
2023/07/06 05:31:44;;;;;;;7.85;5.05;;;14.90;93.10;;;;;;5048574;28;20029;-65
2023/07/06 05:34:10;;;;;;;7.28;4.53;;;14.90;93.10;;;;;;5056047;28;20036;-65
2023/07/06 05:36:36;;;;;;;13.10;5.05;;;14.90;93.00;;;;;;5050805;28;20035;-66
2023/07/06 05:39:04;;;;;;;10.35;4.60;;;15.00;93.00;;;;;;5053643;28;20684;-66
2023/07/06 05:41:30;;;;;;;9.18;5.45;;;15.10;92.90;;;;;;5050431;28;20041;-66
2023/07/06 05:43:56;;;;;;;8.63;5.00;;;15.10;93.10;;;;;;5056547;28;20036;-65
2023/07/06 05:46:23;;;;;;;10.05;5.47;;;15.20;92.80;;;;;;5055046;28;20031;-65
2023/07/06 05:48:49;;;;;;;9.50;4.88;;;15.20;92.70;;;;;;5060825;28;20021;-66
2023/07/06 05:51:15;;;;;;;13.05;6.22;;;15.30;92.70;;;;;;5055463;28;20814;-66
2023/07/06 05:53:41;;;;;;;10.43;5.50;;;15.30;92.60;;;;;;5060912;28;20451;-67
2023/07/06 05:56:07;;;;;;;8.02;4.35;;;15.30;92.60;;;;;;5039405;28;20029;-66
2023/07/06 05:58:32;;;;;;;12.18;5.85;;;15.40;92.60;;;;;;5064287;28;20474;-66
2023/07/06 06:00:59;;;;;;;11.48;5.65;;;15.50;92.50;;;;;;5043780;28;20051;-67
2023/07/06 06:03:25;;;;;;;9.35;5.10;;;15.50;92.40;;;;;;5065327;28;20453;-67
2023/07/06 06:05:52;;;;;;;11.93;6.47;;;15.60;92.40;;;;;;5062290;28;20095;-66
2023/07/06 06:08:18;;;;;;;16.88;9.13;;;15.70;92.30;;;;;;5054620;28;20116;-66
2023/07/06 06:10:44;;;;;;;16.77;8.55;;;15.60;92.20;;;;;;5062119;28;20475;-66
2023/07/06 06:13:10;;;;;;;13.50;6.45;;;15.60;92.20;;;;;;5065429;28;20036;-66
2023/07/06 06:15:36;;;;;;;17.75;8.02;;;15.70;92.30;;;;;;5055260;28;20021;-67
2023/07/06 06:18:03;;;;;;;18.00;8.10;;;15.70;92.20;;;;;;5054282;28;20033;-67
2023/07/06 06:20:30;;;;;;;14.50;6.80;;;15.80;92.20;;;;;;5053919;28;20032;-66
2023/07/06 06:22:56;;;;;;;16.42;8.98;;;15.90;92.20;;;;;;5048453;28;20467;-67
2023/07/06 06:25:22;;;;;;;14.15;8.10;;;15.90;92.30;;;;;;5056057;28;20108;-66
2023/07/06 06:27:48;;;;;;;13.60;7.32;;;16.20;92.10;;;;;;5052451;28;20029;-65
2023/07/06 06:30:15;;;;;;;15.35;7.80;;;16.40;91.80;;;;;;5043356;28;20056;-67
2023/07/06 06:32:41;;;;;;;15.10;8.73;;;16.40;91.50;;;;;;5050792;28;20029;-66
2023/07/06 06:35:31;;;;;;;12.32;7.47;;;16.60;91.40;;;;;;5060932;28;20577;-66
2023/07/06 06:37:57;;;;;;;12.77;7.65;;;16.80;91.20;;;;;;5051348;28;20024;-66
2023/07/06 06:40:24;;;;;;;14.23;7.97;;;16.90;91.10;;;;;;5049367;28;20021;-66
2023/07/06 06:42:50;;;;;;;19.00;10.07;;;17.00;90.90;;;;;;5050521;28;20079;-66
2023/07/06 06:45:19;;;;;;;18.05;10.40;;;17.10;90.70;;;;;;5049596;28;20029;-66
2023/07/06 06:47:45;;;;;;;19.83;9.27;;;17.00;90.50;;;;;;5054046;28;20078;-66
2023/07/06 06:50:14;;;;;;;20.55;9.65;;;16.90;90.50;;;;;;5052682;28;20036;-66
2023/07/06 06:52:40;;;;;;;19.33;9.70;;;16.90;90.60;;;;;;5052246;28;20047;-67
2023/07/06 06:55:07;;;;;;;16.08;10.38;;;16.80;90.70;;;;;;5051345;28;20035;-67
2023/07/06 06:57:33;;;;;;;15.48;9.93;;;16.80;90.70;;;;;;5056887;28;20070;-66
2023/07/06 06:59:59;;;;;;;12.02;8.43;;;16.90;90.80;;;;;;5063021;28;20043;-65
2023/07/06 07:02:25;;;;;;;15.48;9.13;;;17.00;90.70;;;;;;5048430;28;20032;-65
2023/07/06 07:04:51;;;;;;;13.20;8.95;;;17.10;90.60;;;;;;5051462;28;20037;-66
2023/07/06 07:07:17;;;;;;;14.05;9.23;;;17.10;90.60;;;;;;5054387;28;20070;-66
2023/07/06 07:09:45;;;;;;;17.23;10.52;;;17.10;90.60;;;;;;5049692;28;20036;-66
2023/07/06 07:12:11;;;;;;;17.33;10.32;;;17.20;90.50;;;;;;5059378;28;20054;-65
2023/07/06 07:14:38;;;;;;;14.88;9.70;;;17.30;90.50;;;;;;5056866;28;20032;-66
2023/07/06 07:17:04;;;;;;;15.65;10.30;;;17.40;90.30;;;;;;5057363;28;20017;-67
2023/07/06 07:19:30;;;;;;;14.80;9.68;;;17.50;90.20;;;;;;5050210;28;20055;-67
2023/07/06 07:22:00;;;;;;;15.10;10.48;;;17.60;90.10;;;;;;5058680;28;20063;-66
2023/07/06 07:24:29;;;;;;;14.10;9.00;;;17.70;89.90;;;;;;5051136;28;20024;-66
2023/07/06 07:26:57;;;;;;;12.65;8.52;;;17.70;89.80;;;;;;5034429;28;20045;-67
2023/07/06 07:29:23;;;;;;;14.10;9.35;;;17.60;89.90;;;;;;5067652;28;20029;-66
2023/07/06 07:31:49;;;;;;;15.43;9.90;;;17.70;89.90;;;;;;5067302;28;20484;-66
2023/07/06 07:34:16;;;;;;;13.90;10.10;;;17.70;90.00;;;;;;5054435;28;20104;-65
2023/07/06 07:36:43;;;;;;;12.57;9.65;;;17.70;90.00;;;;;;5056966;28;20098;-66
2023/07/06 07:39:09;;;;;;;16.30;10.57;;;17.80;90.00;;;;;;5044667;28;20104;-66
2023/07/06 07:41:35;;;;;;;13.38;9.13;;;17.80;89.70;;;;;;5053008;28;20511;-66
2023/07/06 07:44:01;;;;;;;18.25;10.65;;;17.90;89.70;;;;;;5053013;28;20029;-66
2023/07/06 07:46:28;;;;;;;16.23;10.80;;;17.90;89.70;;;;;;5052323;28;20476;-66
2023/07/06 07:48:54;;;;;;;18.67;11.85;;;17.80;89.50;;;;;;5047513;28;20519;-66
2023/07/06 07:51:26;;;;;;;15.30;11.02;;;17.80;89.50;;;;;;5051908;28;20100;-67
2023/07/06 07:53:54;;;;;;;19.90;13.32;;;17.90;89.50;;;;;;5045052;28;20033;-67
2023/07/06 07:56:21;;;;;;;18.75;14.10;;;17.90;89.20;;;;;;5048024;28;20024;-67
2023/07/06 07:58:48;;;;;;;17.27;10.80;;;17.90;89.20;;;;;;5035452;28;20021;-66
2023/07/06 08:01:16;;;;;;;16.02;9.90;;;18.20;89.00;;;;;;5048752;28;20488;-66
2023/07/06 08:03:42;;;;;;;16.23;11.38;;;18.30;88.50;;;;;;5047753;28;20021;-66
2023/07/06 08:06:09;;;;;;;17.30;10.48;;;18.40;88.10;;;;;;5047224;28;20027;-66
2023/07/06 08:08:37;;;;;;;16.20;11.02;;;18.60;88.00;;;;;;5054794;28;20497;-66
2023/07/06 08:11:09;;;;;;;16.17;10.73;;;18.70;87.30;;;;;;5046480;28;20101;-67
2023/07/06 08:13:36;;;;;;;14.15;10.23;;;18.70;87.00;;;;;;5046650;28;20388;-66
2023/07/06 08:16:03;;;;;;;17.05;11.63;;;18.90;87.00;;;;;;5035581;28;20368;-64
2023/07/06 08:18:30;;;;;;;15.75;10.40;;;18.90;86.10;;;;;;5051904;28;20029;-67
2023/07/06 08:20:57;;;;;;;14.10;9.65;;;19.00;86.10;;;;;;5045288;28;20024;-66
2023/07/06 08:23:27;;;;;;;13.45;9.70;;;19.30;85.70;;;;;;5044512;28;20018;-66
2023/07/06 08:25:53;;;;;;;14.93;8.73;;;19.50;85.10;;;;;;5051111;28;20581;-66
2023/07/06 08:28:24;;;;;;;13.68;10.40;;;19.70;84.70;;;;;;5047964;28;20032;-67
2023/07/06 08:30:51;;;;;;;13.07;9.02;;;19.90;84.60;;;;;;5042268;28;20630;-67
2023/07/06 08:33:21;;;;;;;15.13;10.23;;;20.00;83.50;;;;;;5045860;28;20025;-67
2023/07/06 08:35:47;;;;;;;13.88;9.27;;;19.90;82.60;;;;;;5055118;28;20096;-66
2023/07/06 08:38:13;;;;;;;13.65;9.02;;;19.90;82.40;;;;;;5054474;28;20064;-67
2023/07/06 08:40:41;;;;;;;13.27;9.18;;;19.90;82.60;;;;;;5058508;28;20056;-67
2023/07/06 08:43:25;;;;;;;15.98;10.13;;;20.00;82.60;;;;;;5051281;28;20031;-66
2023/07/06 08:45:56;;;;;;;15.40;9.80;;;20.00;81.60;;;;;;5031084;28;20020;-66
2023/07/06 08:48:26;;;;;;;12.45;9.75;;;20.00;81.10;;;;;;5052282;28;20032;-67
2023/07/06 08:50:56;;;;;;;16.98;12.15;;;20.00;80.70;;;;;;5047551;28;20093;-66
2023/07/06 08:53:27;;;;;;;15.98;10.48;;;19.90;79.80;;;;;;5050825;28;20116;-66
2023/07/06 08:55:54;;;;;;;15.15;9.65;;;19.80;80.50;;;;;;5053247;28;20020;-67
2023/07/06 08:58:29;;;;;;;10.82;8.65;;;20.00;80.60;;;;;;5052415;28;20700;-67
2023/07/06 09:01:02;;;;;;;10.88;8.05;;;20.10;79.80;;;;;;5048351;28;20028;-66
2023/07/06 09:03:35;;;;;;;11.02;8.57;;;20.20;78.70;;;;;;5050105;28;20087;-67
2023/07/06 09:06:01;;;;;;;11.70;8.15;;;20.40;78.20;;;;;;5050954;28;20102;-67
2023/07/06 09:08:28;;;;;;;12.07;8.20;;;20.60;78.00;;;;;;5050129;28;20021;-67
2023/07/06 09:10:54;;;;;;;10.05;7.97;;;20.90;77.10;;;;;;5049264;28;20040;-67
2023/07/06 09:13:27;;;;;;;13.77;9.02;;;21.10;76.00;;;;;;5051747;28;20021;-68
2023/07/06 09:16:03;;;;;;;11.15;8.15;;;21.10;75.20;;;;;;5053721;28;20036;-65
2023/07/06 09:18:29;;;;;;;11.82;8.35;;;21.10;75.20;;;;;;5058842;28;20082;-66
2023/07/06 09:20:58;;;;;;;11.15;8.70;;;21.30;75.30;;;;;;5041272;28;20095;-66
2023/07/06 09:23:24;;;;;;;11.07;7.65;;;21.40;74.80;;;;;;5057401;28;20013;-67
2023/07/06 09:25:50;;;;;;;13.43;8.77;;;21.40;74.60;;;;;;5052819;28;20044;-66
2023/07/06 09:28:23;;;;;;;10.45;7.78;;;21.40;73.80;;;;;;5057986;28;20380;-67
2023/07/06 09:31:04;;;;;;;10.55;6.75;;;21.40;73.50;;;;;;5035764;28;20076;-67
2023/07/06 09:33:31;;;;;;;9.77;6.50;;;21.50;73.80;;;;;;5048823;28;20095;-66
2023/07/06 09:35:57;;;;;;;12.80;8.85;;;21.60;73.60;;;;;;5052660;28;20016;-66
2023/07/06 09:38:24;;;;;;;14.82;9.85;;;21.60;70.50;;;;;;5038526;28;20136;-66
2023/07/06 09:40:50;;;;;;;9.23;6.53;;;21.40;69.50;;;;;;5052436;28;20079;-66
2023/07/06 09:43:21;;;;;;;12.95;8.90;;;21.30;70.60;;;;;;5061830;28;20111;-69
2023/07/06 09:45:49;;;;;;;10.35;6.95;;;21.30;69.90;;;;;;5052890;28;20044;-66
2023/07/06 09:48:37;;;;;;;10.70;6.60;;;21.30;70.30;;;;;;5053379;28;20078;-66
2023/07/06 09:51:08;;;;;;;9.38;6.35;;;21.20;70.40;;;;;;5052641;28;20052;-67
2023/07/06 09:53:56;;;;;;;10.20;5.68;;;21.30;70.60;;;;;;5054449;28;20017;-67
2023/07/06 09:56:22;;;;;;;10.75;6.60;;;21.50;70.50;;;;;;5044983;28;20040;-66
2023/07/06 09:58:52;;;;;;;9.55;6.05;;;21.70;70.30;;;;;;5056214;28;20013;-66
2023/07/06 10:01:40;;;;;;;9.43;5.50;;;21.80;70.20;;;;;;5053869;28;20016;-67
2023/07/06 10:04:20;;;;;;;11.45;6.40;;;21.90;69.80;;;;;;5058629;28;20055;-68
2023/07/06 10:07:05;;;;;;;12.52;8.02;;;22.00;69.00;;;;;;5048226;28;20082;-66
2023/07/06 10:09:49;;;;;;;12.68;7.05;;;21.80;68.30;;;;;;5050600;28;20495;-66
2023/07/06 10:12:20;;;;;;;8.77;6.20;;;21.70;69.20;;;;;;5047324;28;20099;-67
2023/07/06 10:14:49;;;;;;;7.72;4.88;;;21.70;69.50;;;;;;5049359;28;20025;-67
2023/07/06 10:17:35;;;;;;;10.82;5.30;;;21.70;69.90;;;;;;5058457;28;20554;-66
2023/07/06 10:20:22;;;;;;;7.50;4.60;;;21.90;69.20;;;;;;5051090;28;20082;-67
2023/07/06 10:23:13;;;;;;;9.63;5.00;;;21.90;68.20;;;;;;5052123;28;20029;-67
2023/07/06 10:26:20;;;;;;;9.07;4.30;;;22.00;67.40;;;;;;5053828;28;20105;-67
2023/07/06 10:28:50;;;;;;;7.68;5.65;;;22.20;67.00;;;;;;5016567;28;20127;-67
2023/07/06 10:31:19;;;;;;;9.70;5.82;;;22.30;66.00;;;;;;5049552;28;20056;-68
2023/07/06 10:34:19;;;;;;;9.52;5.20;;;22.30;65.40;;;;;;5052314;28;20009;-66
2023/07/06 10:36:47;;;;;;;9.32;5.25;;;22.40;65.70;;;;;;4949034;28;20031;-67
2023/07/06 10:39:34;;;;;;;6.78;4.53;;;22.60;64.50;;;;;;5032569;28;20112;-67
2023/07/06 10:42:09;;;;;;;8.30;4.88;;;22.70;64.30;;;;;;5052132;28;20499;-67
2023/07/06 10:44:44;;;;;;;11.15;6.85;;;22.70;64.10;;;;;;5053553;28;20103;-68
2023/07/06 10:47:39;;;;;;;8.02;4.88;;;22.90;62.90;;;;;;5051227;28;20017;-68
2023/07/06 10:50:07;;;;;;;11.10;5.80;;;22.90;63.40;;;;;;5051723;28;20032;-66
2023/07/06 10:52:40;;;;;;;8.70;4.88;;;22.90;62.60;;;;;;5051531;28;20025;-67
2023/07/06 10:55:22;;;;;;;6.65;4.10;;;22.90;62.90;;;;;;5052488;28;20056;-67
2023/07/06 10:57:52;;;;;;;;;;;23.00;62.70;;;;;;5050117;28;20171;-67
2023/07/06 11:00:21;;;;;;;7.13;4.28;;;23.10;62.10;;;;;;5039385;28;19908;-67
2023/07/06 11:02:47;;;;;;;7.40;3.97;;;23.20;61.80;;;;;;5056083;28;20081;-67
2023/07/06 11:05:26;;;;;;;10.23;5.68;;;23.30;61.70;;;;;;5054031;28;20380;-67
2023/07/06 11:07:54;;;;;;;8.18;4.30;;;23.20;60.60;;;;;;5056795;28;20116;-66
2023/07/06 11:10:36;;;;;;;5.25;3.30;;;23.10;61.30;;;;;;5033440;28;20167;-68
2023/07/06 11:13:02;;;;;;;7.72;3.28;;;23.30;62.20;;;;;;5054390;28;20036;-67
2023/07/06 11:15:43;;;;;;;6.25;3.97;;;23.60;62.30;;;;;;5054533;28;20028;-68
2023/07/06 11:18:11;;;;;;;5.85;4.22;;;23.70;61.40;;;;;;5053576;28;20435;-67
2023/07/06 11:20:38;;;;;;;7.15;4.30;;;23.80;60.70;;;;;;5056498;28;20043;-67
2023/07/06 11:23:04;;;;;;;8.35;5.05;;;23.80;59.30;;;;;;5053820;28;20037;-68
2023/07/06 11:25:31;;;;;;;8.15;5.00;;;23.70;58.80;;;;;;5056316;28;20021;-68
2023/07/06 11:28:05;;;;;;;7.03;4.50;;;23.50;58.90;;;;;;5059420;28;20028;-67
2023/07/06 11:30:57;;;;;;;6.28;3.63;;;23.50;59.80;;;;;;5049265;28;20423;-67
2023/07/06 11:33:43;;;;;;;7.90;4.13;;;23.70;59.60;;;;;;5056534;28;20108;-66
2023/07/06 11:36:32;;;;;;;8.90;4.75;;;23.70;58.00;;;;;;5055372;28;20044;-67
2023/07/06 11:39:01;;;;;;;5.82;3.42;;;23.70;58.50;;;;;;5053602;28;20082;-68
2023/07/06 11:41:53;;;;;;;6.50;3.28;;;23.70;57.60;;;;;;5041301;28;20086;-67
2023/07/06 11:48:10;;;;;;;5.82;3.35;;;23.80;57.10;;;;;;5042561;28;20027;-67
2023/07/06 11:50:38;;;;;;;6.43;3.80;;;24.00;57.60;;;;;;5049231;28;20056;-67
2023/07/06 11:53:29;;;;;;;8.25;4.45;;;24.20;57.50;;;;;;5052633;28;20427;-66
2023/07/06 11:56:04;;;;;;;4.30;3.13;;;24.20;57.10;;;;;;5051188;28;20380;-67
2023/07/06 11:59:25;;;;;;;5.75;3.30;;;24.20;57.60;;;;;;5034735;28;20057;-68
2023/07/06 12:04:22;;;;;;;6.25;3.53;;;24.20;58.00;;;;;;4966856;28;20114;-69
2023/07/06 12:06:48;;;;;;;8.13;3.72;;;24.50;58.00;;;;;;5038201;28;20040;-68
2023/07/06 12:09:25;;;;;;;5.40;3.50;;;24.70;57.00;;;;;;5053739;28;20075;-68
2023/07/06 12:12:23;;;;;;;5.65;3.00;;;24.80;56.20;;;;;;5048239;28;20033;-67
2023/07/06 12:14:55;;;;;;;5.75;2.65;;;24.60;54.20;;;;;;5034604;28;20029;-67
2023/07/06 12:17:22;;;;;;;5.90;2.70;;;24.40;54.90;;;;;;5055130;28;20115;-67
2023/07/06 12:19:56;;;;;;;4.97;3.00;;;24.30;55.50;;;;;;5050810;28;20581;-68
2023/07/06 12:22:22;;;;;;;4.65;3.30;;;24.20;55.80;;;;;;5056275;28;20028;-68
2023/07/06 12:24:51;;;;;;;6.28;3.20;;;24.00;56.20;;;;;;5049130;28;20051;-67
2023/07/06 12:27:18;;;;;;;7.25;3.20;;;23.90;56.50;;;;;;5053681;28;20020;-68
2023/07/06 12:29:45;;;;;;;4.55;3.20;;;23.80;57.10;;;;;;5053125;28;20624;-69
2023/07/06 12:32:16;;;;;;;4.13;2.60;;;23.70;57.30;;;;;;5028450;28;20503;-68
2023/07/06 12:34:46;;;;;;;4.93;3.05;;;23.60;57.50;;;;;;5050488;28;20033;-68
2023/07/06 12:37:17;;;;;;;7.55;3.38;;;23.50;57.90;;;;;;5051162;28;20357;-68
2023/07/06 12:39:45;;;;;;;4.30;2.92;;;23.50;58.00;;;;;;5050887;28;20048;-68
2023/07/06 12:42:13;;;;;;;5.40;3.13;;;23.30;58.10;;;;;;5047765;28;20021;-68
2023/07/06 12:44:42;;;;;;;5.20;2.85;;;23.20;58.40;;;;;;5049809;28;20033;-68
2023/07/06 12:47:25;;;;;;;5.45;2.78;;;23.20;58.80;;;;;;5050476;28;20025;-68
2023/07/06 12:49:52;;;;;;;5.20;3.10;;;23.20;59.30;;;;;;5050784;28;20037;-68
2023/07/06 12:52:21;;;;;;;6.43;3.30;;;23.20;59.20;;;;;;5055631;28;20111;-67
2023/07/06 12:54:52;;;;;;;7.10;3.60;;;23.00;59.30;;;;;;5055696;28;20044;-68
2023/07/06 12:57:28;;;;;;;5.37;3.13;;;22.80;59.60;;;;;;5058999;28;20021;-68
2023/07/06 13:00:05;;;;;;;8.90;3.40;;;22.50;60.50;;;;;;5052422;28;20290;-69
2023/07/06 13:02:36;;;;;;;5.85;3.33;;;22.40;61.50;;;;;;5048382;28;20028;-68